sensor_id;sensor_type;location;lat;lon;timestamp;P1;durP1;ratioP1;P2;durP2;ratioP2
47089;SDS011;32840;52.516;13.294;2023-10-13T00:00:01;11.43;;;3.10;;
47089;SDS011;32840;52.516;13.294;2023-10-13T00:03:06;6.00;;;2.80;;
47089;SDS011;32840;52.516;13.294;2023-10-13T00:06:01;10.95;;;3.10;;
47089;SDS011;32840;52.516;13.294;2023-10-13T00:08:48;8.25;;;2.83;;
47089;SDS011;32840;52.516;13.294;2023-10-13T00:11:32;9.45;;;2.90;;
47089;SDS011;32840;52.516;13.294;2023-10-13T00:14:17;6.68;;;3.53;;
47089;SDS011;32840;52.516;13.294;2023-10-13T00:17:06;8.93;;;3.10;;
47089;SDS011;32840;52.516;13.294;2023-10-13T00:19:52;7.22;;;2.78;;
47089;SDS011;32840;52.516;13.294;2023-10-13T00:22:38;7.22;;;2.90;;
47089;SDS011;32840;52.516;13.294;2023-10-13T00:25:26;11.50;;;3.05;;
47089;SDS011;32840;52.516;13.294;2023-10-13T00:28:11;6.22;;;3.08;;
47089;SDS011;32840;52.516;13.294;2023-10-13T00:31:06;8.30;;;3.63;;
47089;SDS011;32840;52.516;13.294;2023-10-13T00:33:54;7.13;;;3.72;;
47089;SDS011;32840;52.516;13.294;2023-10-13T00:36:45;9.27;;;4.88;;
47089;SDS011;32840;52.516;13.294;2023-10-13T00:39:53;9.70;;;3.90;;
47089;SDS011;32840;52.516;13.294;2023-10-13T00:42:41;9.68;;;3.47;;
47089;SDS011;32840;52.516;13.294;2023-10-13T00:45:36;7.47;;;3.70;;
47089;SDS011;32840;52.516;13.294;2023-10-13T00:48:24;8.07;;;3.60;;
47089;SDS011;32840;52.516;13.294;2023-10-13T00:51:19;7.47;;;3.40;;
47089;SDS011;32840;52.516;13.294;2023-10-13T00:54:20;5.65;;;3.10;;
47089;SDS011;32840;52.516;13.294;2023-10-13T00:57:12;7.70;;;3.15;;
47089;SDS011;32840;52.516;13.294;2023-10-13T01:00:11;8.90;;;3.50;;
47089;SDS011;32840;52.516;13.294;2023-10-13T01:03:04;8.40;;;3.28;;
47089;SDS011;32840;52.516;13.294;2023-10-13T01:05:58;6.63;;;3.35;;
47089;SDS011;32840;52.516;13.294;2023-10-13T01:08:47;9.40;;;3.58;;
47089;SDS011;32840;52.516;13.294;2023-10-13T01:11:41;8.70;;;4.78;;
47089;SDS011;32840;52.516;13.294;2023-10-13T01:14:38;6.53;;;3.63;;
47089;SDS011;32840;52.516;13.294;2023-10-13T01:17:23;8.00;;;4.22;;
47089;SDS011;32840;52.516;13.294;2023-10-13T01:20:09;6.78;;;3.53;;
47089;SDS011;32840;52.516;13.294;2023-10-13T01:22:55;9.00;;;3.47;;
47089;SDS011;32840;52.516;13.294;2023-10-13T01:25:41;7.80;;;3.75;;
47089;SDS011;32840;52.516;13.294;2023-10-13T01:28:26;8.38;;;3.13;;
47089;SDS011;32840;52.516;13.294;2023-10-13T01:31:11;10.07;;;4.85;;
47089;SDS011;32840;52.516;13.294;2023-10-13T01:33:58;7.78;;;4.50;;
47089;SDS011;32840;52.516;13.294;2023-10-13T01:36:43;10.35;;;4.93;;
47089;SDS011;32840;52.516;13.294;2023-10-13T01:39:28;8.45;;;4.97;;
47089;SDS011;32840;52.516;13.294;2023-10-13T01:42:15;9.45;;;5.20;;
47089;SDS011;32840;52.516;13.294;2023-10-13T01:45:06;8.65;;;5.57;;
47089;SDS011;32840;52.516;13.294;2023-10-13T01:47:52;7.50;;;5.00;;
47089;SDS011;32840;52.516;13.294;2023-10-13T01:50:37;7.30;;;4.75;;
47089;SDS011;32840;52.516;13.294;2023-10-13T01:53:23;11.63;;;6.38;;
47089;SDS011;32840;52.516;13.294;2023-10-13T01:56:08;10.70;;;6.55;;
47089;SDS011;32840;52.516;13.294;2023-10-13T01:58:55;10.90;;;6.22;;
47089;SDS011;32840;52.516;13.294;2023-10-13T02:01:41;12.05;;;7.75;;
47089;SDS011;32840;52.516;13.294;2023-10-13T02:04:43;11.68;;;6.53;;
47089;SDS011;32840;52.516;13.294;2023-10-13T02:07:43;15.48;;;7.55;;
47089;SDS011;32840;52.516;13.294;2023-10-13T02:10:29;12.07;;;7.65;;
47089;SDS011;32840;52.516;13.294;2023-10-13T02:13:19;15.75;;;8.40;;
47089;SDS011;32840;52.516;13.294;2023-10-13T02:16:10;15.10;;;8.73;;
47089;SDS011;32840;52.516;13.294;2023-10-13T02:19:02;13.13;;;8.35;;
47089;SDS011;32840;52.516;13.294;2023-10-13T02:21:50;13.07;;;8.40;;
47089;SDS011;32840;52.516;13.294;2023-10-13T02:24:43;12.45;;;7.82;;
47089;SDS011;32840;52.516;13.294;2023-10-13T02:27:29;13.25;;;8.38;;
47089;SDS011;32840;52.516;13.294;2023-10-13T02:30:24;14.00;;;8.18;;
47089;SDS011;32840;52.516;13.294;2023-10-13T02:33:13;12.43;;;8.43;;
47089;SDS011;32840;52.516;13.294;2023-10-13T02:35:59;14.43;;;9.63;;
47089;SDS011;32840;52.516;13.294;2023-10-13T02:38:49;16.45;;;8.63;;
47089;SDS011;32840;52.516;13.294;2023-10-13T02:41:35;14.02;;;8.90;;
47089;SDS011;32840;52.516;13.294;2023-10-13T02:44:22;11.32;;;8.30;;
47089;SDS011;32840;52.516;13.294;2023-10-13T02:47:18;12.45;;;8.60;;
47089;SDS011;32840;52.516;13.294;2023-10-13T02:50:03;11.95;;;8.90;;
47089;SDS011;32840;52.516;13.294;2023-10-13T02:52:56;15.75;;;9.30;;
47089;SDS011;32840;52.516;13.294;2023-10-13T02:55:55;14.48;;;9.00;;
47089;SDS011;32840;52.516;13.294;2023-10-13T02:58:51;15.38;;;9.23;;
47089;SDS011;32840;52.516;13.294;2023-10-13T03:01:50;16.38;;;9.68;;
47089;SDS011;32840;52.516;13.294;2023-10-13T03:04:39;14.95;;;9.25;;
47089;SDS011;32840;52.516;13.294;2023-10-13T03:07:58;16.50;;;10.35;;
47089;SDS011;32840;52.516;13.294;2023-10-13T03:10:42;18.58;;;10.50;;
47089;SDS011;32840;52.516;13.294;2023-10-13T03:13:32;18.95;;;10.15;;
47089;SDS011;32840;52.516;13.294;2023-10-13T03:16:21;16.83;;;9.18;;
47089;SDS011;32840;52.516;13.294;2023-10-13T03:19:06;18.08;;;10.43;;
47089;SDS011;32840;52.516;13.294;2023-10-13T03:21:53;19.00;;;10.55;;
47089;SDS011;32840;52.516;13.294;2023-10-13T03:24:49;18.75;;;10.75;;
47089;SDS011;32840;52.516;13.294;2023-10-13T03:27:37;19.85;;;10.63;;
47089;SDS011;32840;52.516;13.294;2023-10-13T03:30:45;23.20;;;10.88;;
47089;SDS011;32840;52.516;13.294;2023-10-13T03:33:31;21.38;;;11.63;;
47089;SDS011;32840;52.516;13.294;2023-10-13T03:36:17;17.20;;;10.73;;
47089;SDS011;32840;52.516;13.294;2023-10-13T03:39:22;18.60;;;11.55;;
47089;SDS011;32840;52.516;13.294;2023-10-13T03:42:14;16.60;;;11.07;;
47089;SDS011;32840;52.516;13.294;2023-10-13T03:45:06;17.50;;;11.13;;
47089;SDS011;32840;52.516;13.294;2023-10-13T03:47:54;19.38;;;11.88;;
47089;SDS011;32840;52.516;13.294;2023-10-13T03:50:43;21.13;;;12.30;;
47089;SDS011;32840;52.516;13.294;2023-10-13T03:53:42;19.92;;;12.07;;
47089;SDS011;32840;52.516;13.294;2023-10-13T03:56:39;23.13;;;13.07;;
47089;SDS011;32840;52.516;13.294;2023-10-13T03:59:25;22.20;;;12.55;;
47089;SDS011;32840;52.516;13.294;2023-10-13T04:02:21;19.67;;;11.65;;
47089;SDS011;32840;52.516;13.294;2023-10-13T04:05:06;17.48;;;12.57;;
47089;SDS011;32840;52.516;13.294;2023-10-13T04:07:54;19.83;;;12.93;;
47089;SDS011;32840;52.516;13.294;2023-10-13T04:11:04;20.45;;;12.90;;
47089;SDS011;32840;52.516;13.294;2023-10-13T04:14:07;19.02;;;11.80;;
47089;SDS011;32840;52.516;13.294;2023-10-13T04:17:28;21.30;;;13.38;;
47089;SDS011;32840;52.516;13.294;2023-10-13T04:20:18;23.65;;;12.55;;
47089;SDS011;32840;52.516;13.294;2023-10-13T04:23:18;23.27;;;12.75;;
47089;SDS011;32840;52.516;13.294;2023-10-13T04:26:11;19.55;;;11.95;;
47089;SDS011;32840;52.516;13.294;2023-10-13T04:29:05;22.08;;;13.98;;
47089;SDS011;32840;52.516;13.294;2023-10-13T04:31:55;20.92;;;13.13;;
47089;SDS011;32840;52.516;13.294;2023-10-13T04:34:44;22.40;;;14.32;;
47089;SDS011;32840;52.516;13.294;2023-10-13T04:37:37;24.90;;;13.55;;
47089;SDS011;32840;52.516;13.294;2023-10-13T04:40:40;22.15;;;14.30;;
47089;SDS011;32840;52.516;13.294;2023-10-13T04:43:44;23.38;;;14.27;;
47089;SDS011;32840;52.516;13.294;2023-10-13T04:46:41;21.25;;;14.30;;
47089;SDS011;32840;52.516;13.294;2023-10-13T04:49:32;26.60;;;14.82;;
47089;SDS011;32840;52.516;13.294;2023-10-13T04:52:18;21.52;;;14.75;;
47089;SDS011;32840;52.516;13.294;2023-10-13T04:55:33;21.40;;;14.68;;
47089;SDS011;32840;52.516;13.294;2023-10-13T04:58:52;22.10;;;14.10;;
47089;SDS011;32840;52.516;13.294;2023-10-13T05:01:58;25.23;;;14.82;;
47089;SDS011;32840;52.516;13.294;2023-10-13T05:05:16;23.65;;;13.90;;
47089;SDS011;32840;52.516;13.294;2023-10-13T05:08:14;23.98;;;16.83;;
47089;SDS011;32840;52.516;13.294;2023-10-13T05:11:18;23.73;;;15.48;;
47089;SDS011;32840;52.516;13.294;2023-10-13T05:14:21;21.25;;;14.15;;
47089;SDS011;32840;52.516;13.294;2023-10-13T05:17:28;20.88;;;14.77;;
47089;SDS011;32840;52.516;13.294;2023-10-13T05:20:31;21.95;;;13.65;;
47089;SDS011;32840;52.516;13.294;2023-10-13T05:23:35;21.45;;;14.70;;
47089;SDS011;32840;52.516;13.294;2023-10-13T05:26:39;26.88;;;15.18;;
47089;SDS011;32840;52.516;13.294;2023-10-13T05:29:44;21.33;;;14.75;;
47089;SDS011;32840;52.516;13.294;2023-10-13T05:32:49;21.83;;;14.68;;
47089;SDS011;32840;52.516;13.294;2023-10-13T05:35:53;24.80;;;14.63;;
47089;SDS011;32840;52.516;13.294;2023-10-13T05:38:57;22.85;;;13.90;;
47089;SDS011;32840;52.516;13.294;2023-10-13T05:42:00;22.00;;;15.00;;
47089;SDS011;32840;52.516;13.294;2023-10-13T05:45:03;24.17;;;14.70;;
47089;SDS011;32840;52.516;13.294;2023-10-13T05:48:08;21.95;;;13.38;;
47089;SDS011;32840;52.516;13.294;2023-10-13T05:50:59;17.83;;;12.68;;
47089;SDS011;32840;52.516;13.294;2023-10-13T05:54:03;22.73;;;14.63;;
47089;SDS011;32840;52.516;13.294;2023-10-13T05:57:03;24.20;;;13.95;;
47089;SDS011;32840;52.516;13.294;2023-10-13T06:00:07;19.50;;;14.18;;
47089;SDS011;32840;52.516;13.294;2023-10-13T06:03:12;25.42;;;13.82;;
47089;SDS011;32840;52.516;13.294;2023-10-13T06:06:15;21.55;;;13.80;;
47089;SDS011;32840;52.516;13.294;2023-10-13T06:09:18;22.30;;;13.02;;
47089;SDS011;32840;52.516;13.294;2023-10-13T06:12:22;19.70;;;13.40;;
47089;SDS011;32840;52.516;13.294;2023-10-13T06:15:28;26.70;;;14.20;;
47089;SDS011;32840;52.516;13.294;2023-10-13T06:18:36;19.20;;;12.57;;
47089;SDS011;32840;52.516;13.294;2023-10-13T06:21:42;21.25;;;12.45;;
47089;SDS011;32840;52.516;13.294;2023-10-13T06:24:46;20.42;;;13.27;;
47089;SDS011;32840;52.516;13.294;2023-10-13T06:27:49;18.63;;;12.23;;
47089;SDS011;32840;52.516;13.294;2023-10-13T06:30:53;16.90;;;10.40;;
47089;SDS011;32840;52.516;13.294;2023-10-13T06:33:43;24.83;;;11.63;;
47089;SDS011;32840;52.516;13.294;2023-10-13T06:36:29;17.50;;;11.93;;
47089;SDS011;32840;52.516;13.294;2023-10-13T06:39:15;22.88;;;12.82;;
47089;SDS011;32840;52.516;13.294;2023-10-13T06:42:21;22.98;;;11.40;;
47089;SDS011;32840;52.516;13.294;2023-10-13T06:47:58;22.42;;;13.30;;
47089;SDS011;32840;52.516;13.294;2023-10-13T06:50:49;18.25;;;12.30;;
47089;SDS011;32840;52.516;13.294;2023-10-13T06:53:36;22.90;;;13.00;;
47089;SDS011;32840;52.516;13.294;2023-10-13T06:56:22;19.83;;;12.77;;
47089;SDS011;32840;52.516;13.294;2023-10-13T07:02:00;18.80;;;12.27;;
47089;SDS011;32840;52.516;13.294;2023-10-13T07:04:50;20.90;;;11.95;;
47089;SDS011;32840;52.516;13.294;2023-10-13T07:07:52;17.58;;;11.75;;
47089;SDS011;32840;52.516;13.294;2023-10-13T07:10:47;18.08;;;9.38;;
47089;SDS011;32840;52.516;13.294;2023-10-13T07:13:57;16.17;;;11.25;;
47089;SDS011;32840;52.516;13.294;2023-10-13T07:16:43;16.52;;;11.27;;
47089;SDS011;32840;52.516;13.294;2023-10-13T07:19:43;19.10;;;11.07;;
47089;SDS011;32840;52.516;13.294;2023-10-13T07:22:37;17.23;;;11.27;;
47089;SDS011;32840;52.516;13.294;2023-10-13T07:25:25;15.60;;;11.13;;
47089;SDS011;32840;52.516;13.294;2023-10-13T07:28:11;18.88;;;10.88;;
47089;SDS011;32840;52.516;13.294;2023-10-13T07:30:56;15.85;;;10.63;;
47089;SDS011;32840;52.516;13.294;2023-10-13T07:33:43;15.27;;;10.18;;
47089;SDS011;32840;52.516;13.294;2023-10-13T07:36:28;17.10;;;11.88;;
47089;SDS011;32840;52.516;13.294;2023-10-13T07:39:17;15.63;;;10.15;;
47089;SDS011;32840;52.516;13.294;2023-10-13T07:42:09;13.75;;;9.32;;
47089;SDS011;32840;52.516;13.294;2023-10-13T07:45:05;17.27;;;10.60;;
47089;SDS011;32840;52.516;13.294;2023-10-13T07:47:53;17.73;;;9.68;;
47089;SDS011;32840;52.516;13.294;2023-10-13T07:50:43;16.13;;;9.07;;
47089;SDS011;32840;52.516;13.294;2023-10-13T07:53:30;13.90;;;10.13;;
47089;SDS011;32840;52.516;13.294;2023-10-13T07:56:28;15.75;;;9.65;;
47089;SDS011;32840;52.516;13.294;2023-10-13T07:59:14;14.48;;;8.88;;
47089;SDS011;32840;52.516;13.294;2023-10-13T08:01:59;11.40;;;8.00;;
47089;SDS011;32840;52.516;13.294;2023-10-13T08:04:59;14.27;;;8.43;;
47089;SDS011;32840;52.516;13.294;2023-10-13T08:07:45;11.35;;;8.00;;
47089;SDS011;32840;52.516;13.294;2023-10-13T08:10:37;14.05;;;8.15;;
47089;SDS011;32840;52.516;13.294;2023-10-13T08:16:06;10.63;;;7.22;;
47089;SDS011;32840;52.516;13.294;2023-10-13T08:18:58;13.82;;;8.52;;
47089;SDS011;32840;52.516;13.294;2023-10-13T08:21:47;12.95;;;7.53;;
47089;SDS011;32840;52.516;13.294;2023-10-13T08:24:43;9.23;;;7.07;;
47089;SDS011;32840;52.516;13.294;2023-10-13T08:27:31;11.85;;;7.53;;
47089;SDS011;32840;52.516;13.294;2023-10-13T08:36:01;10.90;;;6.75;;
47089;SDS011;32840;52.516;13.294;2023-10-13T08:39:17;11.23;;;8.35;;
47089;SDS011;32840;52.516;13.294;2023-10-13T08:42:20;12.50;;;6.78;;
47089;SDS011;32840;52.516;13.294;2023-10-13T08:45:10;10.80;;;6.95;;
47089;SDS011;32840;52.516;13.294;2023-10-13T08:48:08;9.52;;;7.35;;
47089;SDS011;32840;52.516;13.294;2023-10-13T08:50:57;14.13;;;9.57;;
47089;SDS011;32840;52.516;13.294;2023-10-13T08:53:48;11.60;;;7.80;;
47089;SDS011;32840;52.516;13.294;2023-10-13T08:56:43;12.32;;;7.72;;
47089;SDS011;32840;52.516;13.294;2023-10-13T08:59:32;14.13;;;9.00;;
47089;SDS011;32840;52.516;13.294;2023-10-13T09:02:37;11.73;;;8.63;;
47089;SDS011;32840;52.516;13.294;2023-10-13T09:05:42;13.05;;;8.88;;
47089;SDS011;32840;52.516;13.294;2023-10-13T09:08:45;23.00;;;16.42;;
47089;SDS011;32840;52.516;13.294;2023-10-13T09:11:51;13.93;;;9.27;;
47089;SDS011;32840;52.516;13.294;2023-10-13T09:14:52;16.73;;;7.68;;
47089;SDS011;32840;52.516;13.294;2023-10-13T09:17:44;15.00;;;7.38;;
47089;SDS011;32840;52.516;13.294;2023-10-13T09:20:59;15.32;;;9.27;;
47089;SDS011;32840;52.516;13.294;2023-10-13T09:24:05;17.13;;;10.23;;
47089;SDS011;32840;52.516;13.294;2023-10-13T09:27:11;13.75;;;9.30;;
47089;SDS011;32840;52.516;13.294;2023-10-13T09:29:57;13.32;;;8.85;;
47089;SDS011;32840;52.516;13.294;2023-10-13T09:33:02;11.93;;;7.47;;
47089;SDS011;32840;52.516;13.294;2023-10-13T09:35:52;10.60;;;6.72;;
47089;SDS011;32840;52.516;13.294;2023-10-13T09:38:38;11.02;;;7.38;;
47089;SDS011;32840;52.516;13.294;2023-10-13T09:41:25;14.27;;;9.68;;
47089;SDS011;32840;52.516;13.294;2023-10-13T09:44:16;13.63;;;8.48;;
47089;SDS011;32840;52.516;13.294;2023-10-13T09:47:03;10.27;;;6.95;;
47089;SDS011;32840;52.516;13.294;2023-10-13T09:50:03;13.90;;;8.00;;
47089;SDS011;32840;52.516;13.294;2023-10-13T09:52:57;18.75;;;13.82;;
47089;SDS011;32840;52.516;13.294;2023-10-13T09:55:44;14.35;;;7.07;;
47089;SDS011;32840;52.516;13.294;2023-10-13T09:58:59;12.15;;;7.20;;
47089;SDS011;32840;52.516;13.294;2023-10-13T10:01:56;14.20;;;7.32;;
47089;SDS011;32840;52.516;13.294;2023-10-13T10:04:51;16.75;;;10.88;;
47089;SDS011;32840;52.516;13.294;2023-10-13T10:07:40;17.17;;;10.18;;
47089;SDS011;32840;52.516;13.294;2023-10-13T10:14:13;10.88;;;7.75;;
47089;SDS011;32840;52.516;13.294;2023-10-13T10:17:07;11.85;;;7.32;;
47089;SDS011;32840;52.516;13.294;2023-10-13T10:19:53;11.50;;;7.80;;
47089;SDS011;32840;52.516;13.294;2023-10-13T10:22:56;12.23;;;8.55;;
47089;SDS011;32840;52.516;13.294;2023-10-13T10:25:43;17.05;;;10.63;;
47089;SDS011;32840;52.516;13.294;2023-10-13T10:28:38;14.73;;;9.70;;
47089;SDS011;32840;52.516;13.294;2023-10-13T10:31:31;12.27;;;6.90;;
47089;SDS011;32840;52.516;13.294;2023-10-13T10:34:29;18.08;;;8.15;;
47089;SDS011;32840;52.516;13.294;2023-10-13T10:37:18;18.70;;;8.07;;
47089;SDS011;32840;52.516;13.294;2023-10-13T10:40:08;13.88;;;7.75;;
47089;SDS011;32840;52.516;13.294;2023-10-13T10:42:53;17.45;;;9.38;;
47089;SDS011;32840;52.516;13.294;2023-10-13T10:45:45;10.15;;;7.20;;
47089;SDS011;32840;52.516;13.294;2023-10-13T10:48:36;10.50;;;7.30;;
47089;SDS011;32840;52.516;13.294;2023-10-13T10:51:30;14.10;;;8.50;;
47089;SDS011;32840;52.516;13.294;2023-10-13T10:54:19;17.35;;;10.43;;
47089;SDS011;32840;52.516;13.294;2023-10-13T10:57:06;12.38;;;8.00;;
47089;SDS011;32840;52.516;13.294;2023-10-13T11:00:01;11.90;;;7.30;;
47089;SDS011;32840;52.516;13.294;2023-10-13T11:02:57;11.65;;;7.30;;
47089;SDS011;32840;52.516;13.294;2023-10-13T11:05:51;10.82;;;7.38;;
47089;SDS011;32840;52.516;13.294;2023-10-13T11:08:36;11.93;;;7.25;;
47089;SDS011;32840;52.516;13.294;2023-10-13T11:11:30;13.43;;;9.07;;
47089;SDS011;32840;52.516;13.294;2023-10-13T11:14:20;11.38;;;7.53;;
47089;SDS011;32840;52.516;13.294;2023-10-13T11:17:19;12.10;;;7.18;;
47089;SDS011;32840;52.516;13.294;2023-10-13T11:20:11;13.02;;;7.72;;
47089;SDS011;32840;52.516;13.294;2023-10-13T11:23:14;11.77;;;7.15;;
47089;SDS011;32840;52.516;13.294;2023-10-13T11:26:00;14.33;;;9.10;;
47089;SDS011;32840;52.516;13.294;2023-10-13T11:28:51;13.38;;;8.02;;
47089;SDS011;32840;52.516;13.294;2023-10-13T11:31:37;16.08;;;7.53;;
47089;SDS011;32840;52.516;13.294;2023-10-13T11:34:27;13.07;;;7.97;;
47089;SDS011;32840;52.516;13.294;2023-10-13T11:37:23;14.10;;;6.80;;
47089;SDS011;32840;52.516;13.294;2023-10-13T11:40:30;16.08;;;7.80;;
47089;SDS011;32840;52.516;13.294;2023-10-13T11:43:37;12.27;;;6.95;;
47089;SDS011;32840;52.516;13.294;2023-10-13T11:46:35;13.05;;;7.50;;
47089;SDS011;32840;52.516;13.294;2023-10-13T11:49:20;12.85;;;7.75;;
47089;SDS011;32840;52.516;13.294;2023-10-13T11:52:20;15.95;;;8.05;;
47089;SDS011;32840;52.516;13.294;2023-10-13T11:55:10;15.40;;;7.45;;
47089;SDS011;32840;52.516;13.294;2023-10-13T11:57:55;15.75;;;8.30;;
47089;SDS011;32840;52.516;13.294;2023-10-13T12:00:44;14.30;;;7.40;;
47089;SDS011;32840;52.516;13.294;2023-10-13T12:03:39;13.40;;;6.60;;
47089;SDS011;32840;52.516;13.294;2023-10-13T12:06:43;13.70;;;6.68;;
47089;SDS011;32840;52.516;13.294;2023-10-13T12:09:47;14.15;;;7.38;;
47089;SDS011;32840;52.516;13.294;2023-10-13T12:12:39;9.68;;;6.82;;
47089;SDS011;32840;52.516;13.294;2023-10-13T12:15:26;14.95;;;7.10;;
47089;SDS011;32840;52.516;13.294;2023-10-13T12:18:22;10.65;;;6.93;;
47089;SDS011;32840;52.516;13.294;2023-10-13T12:21:09;14.60;;;7.30;;
47089;SDS011;32840;52.516;13.294;2023-10-13T12:23:57;12.88;;;7.78;;
47089;SDS011;32840;52.516;13.294;2023-10-13T12:26:42;11.30;;;6.82;;
47089;SDS011;32840;52.516;13.294;2023-10-13T12:29:30;9.40;;;6.43;;
47089;SDS011;32840;52.516;13.294;2023-10-13T12:32:19;9.80;;;6.43;;
47089;SDS011;32840;52.516;13.294;2023-10-13T12:35:16;14.90;;;6.93;;
47089;SDS011;32840;52.516;13.294;2023-10-13T12:38:13;18.52;;;7.40;;
47089;SDS011;32840;52.516;13.294;2023-10-13T12:41:16;11.25;;;7.15;;
47089;SDS011;32840;52.516;13.294;2023-10-13T12:44:20;13.57;;;6.43;;
47089;SDS011;32840;52.516;13.294;2023-10-13T12:47:25;11.48;;;6.78;;
47089;SDS011;32840;52.516;13.294;2023-10-13T12:50:29;13.68;;;6.53;;
47089;SDS011;32840;52.516;13.294;2023-10-13T12:53:30;12.73;;;6.97;;
47089;SDS011;32840;52.516;13.294;2023-10-13T12:56:15;13.85;;;6.35;;
47089;SDS011;32840;52.516;13.294;2023-10-13T12:59:01;17.17;;;4.97;;
47089;SDS011;32840;52.516;13.294;2023-10-13T13:01:54;12.93;;;4.07;;
47089;SDS011;32840;52.516;13.294;2023-10-13T13:04:39;13.95;;;4.55;;
47089;SDS011;32840;52.516;13.294;2023-10-13T13:07:28;11.35;;;5.75;;
47089;SDS011;32840;52.516;13.294;2023-10-13T13:10:20;16.27;;;6.30;;
47089;SDS011;32840;52.516;13.294;2023-10-13T13:13:19;10.88;;;6.68;;
47089;SDS011;32840;52.516;13.294;2023-10-13T13:16:08;14.75;;;6.63;;
47089;SDS011;32840;52.516;13.294;2023-10-13T13:18:54;16.10;;;6.85;;
47089;SDS011;32840;52.516;13.294;2023-10-13T13:21:39;17.05;;;6.45;;
47089;SDS011;32840;52.516;13.294;2023-10-13T13:24:23;10.05;;;6.28;;
47089;SDS011;32840;52.516;13.294;2023-10-13T13:27:16;19.17;;;7.65;;
47089;SDS011;32840;52.516;13.294;2023-10-13T13:30:07;18.20;;;6.88;;
47089;SDS011;32840;52.516;13.294;2023-10-13T13:32:57;20.90;;;6.90;;
47089;SDS011;32840;52.516;13.294;2023-10-13T13:35:48;17.30;;;8.52;;
47089;SDS011;32840;52.516;13.294;2023-10-13T13:38:33;14.02;;;6.72;;
47089;SDS011;32840;52.516;13.294;2023-10-13T13:41:17;16.85;;;6.05;;
47089;SDS011;32840;52.516;13.294;2023-10-13T13:44:02;11.40;;;6.85;;
47089;SDS011;32840;52.516;13.294;2023-10-13T13:46:59;15.60;;;7.07;;
47089;SDS011;32840;52.516;13.294;2023-10-13T13:49:44;11.90;;;6.25;;
47089;SDS011;32840;52.516;13.294;2023-10-13T13:52:35;12.65;;;5.90;;
47089;SDS011;32840;52.516;13.294;2023-10-13T13:55:33;11.75;;;6.10;;
47089;SDS011;32840;52.516;13.294;2023-10-13T13:58:19;13.48;;;7.50;;
47089;SDS011;32840;52.516;13.294;2023-10-13T14:01:04;15.15;;;5.95;;
47089;SDS011;32840;52.516;13.294;2023-10-13T14:03:56;14.13;;;6.75;;
47089;SDS011;32840;52.516;13.294;2023-10-13T14:06:47;14.65;;;6.43;;
47089;SDS011;32840;52.516;13.294;2023-10-13T14:09:32;17.17;;;6.30;;
47089;SDS011;32840;52.516;13.294;2023-10-13T14:12:20;16.27;;;6.40;;
47089;SDS011;32840;52.516;13.294;2023-10-13T14:15:25;13.10;;;6.60;;
47089;SDS011;32840;52.516;13.294;2023-10-13T14:18:10;15.60;;;6.50;;
47089;SDS011;32840;52.516;13.294;2023-10-13T14:21:00;20.40;;;7.63;;
47089;SDS011;32840;52.516;13.294;2023-10-13T14:23:49;14.77;;;6.93;;
47089;SDS011;32840;52.516;13.294;2023-10-13T14:26:38;14.30;;;6.50;;
47089;SDS011;32840;52.516;13.294;2023-10-13T14:29:31;11.48;;;5.93;;
47089;SDS011;32840;52.516;13.294;2023-10-13T14:32:25;13.18;;;6.13;;
47089;SDS011;32840;52.516;13.294;2023-10-13T14:35:16;11.88;;;6.05;;
47089;SDS011;32840;52.516;13.294;2023-10-13T14:38:01;14.23;;;6.50;;
47089;SDS011;32840;52.516;13.294;2023-10-13T14:40:55;14.82;;;6.47;;
47089;SDS011;32840;52.516;13.294;2023-10-13T14:43:42;12.63;;;5.75;;
47089;SDS011;32840;52.516;13.294;2023-10-13T14:46:44;21.30;;;7.78;;
47089;SDS011;32840;52.516;13.294;2023-10-13T14:49:32;10.23;;;5.57;;
47089;SDS011;32840;52.516;13.294;2023-10-13T14:52:19;16.33;;;7.68;;
47089;SDS011;32840;52.516;13.294;2023-10-13T14:55:08;14.48;;;6.00;;
47089;SDS011;32840;52.516;13.294;2023-10-13T14:58:02;15.07;;;5.55;;
47089;SDS011;32840;52.516;13.294;2023-10-13T15:01:01;12.23;;;6.38;;
47089;SDS011;32840;52.516;13.294;2023-10-13T15:04:04;15.23;;;6.35;;
47089;SDS011;32840;52.516;13.294;2023-10-13T15:06:49;21.77;;;6.93;;
47089;SDS011;32840;52.516;13.294;2023-10-13T15:09:34;14.02;;;6.05;;
47089;SDS011;32840;52.516;13.294;2023-10-13T15:12:20;18.30;;;6.93;;
47089;SDS011;32840;52.516;13.294;2023-10-13T15:15:10;12.15;;;7.32;;
47089;SDS011;32840;52.516;13.294;2023-10-13T15:18:01;16.33;;;6.18;;
47089;SDS011;32840;52.516;13.294;2023-10-13T15:20:47;18.58;;;6.30;;
47089;SDS011;32840;52.516;13.294;2023-10-13T15:23:34;15.68;;;6.95;;
47089;SDS011;32840;52.516;13.294;2023-10-13T15:26:26;14.05;;;5.60;;
47089;SDS011;32840;52.516;13.294;2023-10-13T15:29:16;16.25;;;6.85;;
47089;SDS011;32840;52.516;13.294;2023-10-13T15:32:01;12.68;;;6.38;;
47089;SDS011;32840;52.516;13.294;2023-10-13T15:34:47;11.30;;;6.15;;
47089;SDS011;32840;52.516;13.294;2023-10-13T15:37:34;17.52;;;6.93;;
47089;SDS011;32840;52.516;13.294;2023-10-13T15:40:19;15.93;;;6.65;;
47089;SDS011;32840;52.516;13.294;2023-10-13T15:43:05;15.43;;;7.13;;
47089;SDS011;32840;52.516;13.294;2023-10-13T15:45:51;14.75;;;6.88;;
47089;SDS011;32840;52.516;13.294;2023-10-13T15:48:37;14.52;;;6.20;;
47089;SDS011;32840;52.516;13.294;2023-10-13T15:51:23;19.00;;;8.70;;
47089;SDS011;32840;52.516;13.294;2023-10-13T15:54:09;16.55;;;8.00;;
47089;SDS011;32840;52.516;13.294;2023-10-13T15:57:02;12.10;;;6.35;;
47089;SDS011;32840;52.516;13.294;2023-10-13T15:59:50;16.10;;;6.50;;
47089;SDS011;32840;52.516;13.294;2023-10-13T16:02:35;18.30;;;6.75;;
47089;SDS011;32840;52.516;13.294;2023-10-13T16:05:21;16.25;;;7.15;;
47089;SDS011;32840;52.516;13.294;2023-10-13T16:08:16;17.05;;;6.40;;
47089;SDS011;32840;52.516;13.294;2023-10-13T16:11:11;19.30;;;7.07;;
47089;SDS011;32840;52.516;13.294;2023-10-13T16:13:59;12.82;;;6.07;;
47089;SDS011;32840;52.516;13.294;2023-10-13T16:16:48;13.93;;;6.63;;
47089;SDS011;32840;52.516;13.294;2023-10-13T16:19:35;12.70;;;6.30;;
47089;SDS011;32840;52.516;13.294;2023-10-13T16:22:21;15.00;;;6.57;;
47089;SDS011;32840;52.516;13.294;2023-10-13T16:25:08;16.30;;;6.47;;
47089;SDS011;32840;52.516;13.294;2023-10-13T16:27:58;14.55;;;6.82;;
47089;SDS011;32840;52.516;13.294;2023-10-13T16:30:44;13.57;;;7.55;;
47089;SDS011;32840;52.516;13.294;2023-10-13T16:33:29;13.00;;;5.57;;
47089;SDS011;32840;52.516;13.294;2023-10-13T16:36:17;25.35;;;13.35;;
47089;SDS011;32840;52.516;13.294;2023-10-13T16:39:06;10.88;;;5.88;;
47089;SDS011;32840;52.516;13.294;2023-10-13T16:41:52;15.15;;;6.10;;
47089;SDS011;32840;52.516;13.294;2023-10-13T16:44:39;13.18;;;6.53;;
47089;SDS011;32840;52.516;13.294;2023-10-13T16:47:25;15.90;;;6.45;;
47089;SDS011;32840;52.516;13.294;2023-10-13T16:50:10;13.65;;;7.07;;
47089;SDS011;32840;52.516;13.294;2023-10-13T16:53:01;13.85;;;6.70;;
47089;SDS011;32840;52.516;13.294;2023-10-13T16:55:50;13.63;;;6.30;;
47089;SDS011;32840;52.516;13.294;2023-10-13T16:58:35;11.38;;;5.90;;
47089;SDS011;32840;52.516;13.294;2023-10-13T17:01:20;14.43;;;6.03;;
47089;SDS011;32840;52.516;13.294;2023-10-13T17:04:08;19.15;;;6.80;;